sensor_id;sensor_type;location;lat;lon;timestamp;P1;durP1;ratioP1;P2;durP2;ratioP2
16510;SDS011;8368;48.772;8.754;2022-10-26T00:01:04;8.27;;;3.43;;
16510;SDS011;8368;48.772;8.754;2022-10-26T00:03:35;5.83;;;3.30;;
16510;SDS011;8368;48.772;8.754;2022-10-26T00:06:03;4.83;;;3.00;;
16510;SDS011;8368;48.772;8.754;2022-10-26T00:08:29;5.77;;;3.10;;
16510;SDS011;8368;48.772;8.754;2022-10-26T00:10:58;4.33;;;2.80;;
16510;SDS011;8368;48.772;8.754;2022-10-26T00:13:24;3.10;;;2.80;;
16510;SDS011;8368;48.772;8.754;2022-10-26T00:15:49;6.13;;;3.17;;
16510;SDS011;8368;48.772;8.754;2022-10-26T00:18:15;4.17;;;2.70;;
16510;SDS011;8368;48.772;8.754;2022-10-26T00:20:40;2.83;;;2.63;;
16510;SDS011;8368;48.772;8.754;2022-10-26T00:23:06;5.03;;;2.80;;
16510;SDS011;8368;48.772;8.754;2022-10-26T00:25:32;4.13;;;2.70;;
16510;SDS011;8368;48.772;8.754;2022-10-26T00:27:57;3.77;;;2.87;;
16510;SDS011;8368;48.772;8.754;2022-10-26T00:30:23;3.20;;;3.00;;
16510;SDS011;8368;48.772;8.754;2022-10-26T00:32:49;3.87;;;3.27;;
16510;SDS011;8368;48.772;8.754;2022-10-26T00:35:14;5.13;;;3.20;;
16510;SDS011;8368;48.772;8.754;2022-10-26T00:37:40;7.93;;;2.77;;
16510;SDS011;8368;48.772;8.754;2022-10-26T00:40:06;7.70;;;2.50;;
16510;SDS011;8368;48.772;8.754;2022-10-26T00:42:31;3.40;;;3.10;;
16510;SDS011;8368;48.772;8.754;2022-10-26T00:45:18;5.03;;;2.50;;
16510;SDS011;8368;48.772;8.754;2022-10-26T00:47:48;4.37;;;3.10;;
16510;SDS011;8368;48.772;8.754;2022-10-26T00:50:24;3.40;;;3.10;;
16510;SDS011;8368;48.772;8.754;2022-10-26T00:53:01;5.70;;;2.60;;
16510;SDS011;8368;48.772;8.754;2022-10-26T00:55:30;3.00;;;2.80;;
16510;SDS011;8368;48.772;8.754;2022-10-26T00:58:00;3.80;;;2.87;;
16510;SDS011;8368;48.772;8.754;2022-10-26T01:00:27;6.57;;;2.87;;
16510;SDS011;8368;48.772;8.754;2022-10-26T01:02:53;4.63;;;2.77;;
16510;SDS011;8368;48.772;8.754;2022-10-26T01:05:21;4.77;;;2.83;;
16510;SDS011;8368;48.772;8.754;2022-10-26T01:07:47;2.80;;;2.60;;
16510;SDS011;8368;48.772;8.754;2022-10-26T01:10:14;7.17;;;3.00;;
16510;SDS011;8368;48.772;8.754;2022-10-26T01:12:40;4.20;;;2.80;;
16510;SDS011;8368;48.772;8.754;2022-10-26T01:15:06;2.53;;;2.33;;
16510;SDS011;8368;48.772;8.754;2022-10-26T01:23:30;3.00;;;2.63;;
16510;SDS011;8368;48.772;8.754;2022-10-26T01:31:33;6.10;;;2.90;;
16510;SDS011;8368;48.772;8.754;2022-10-26T01:34:05;5.60;;;2.80;;
16510;SDS011;8368;48.772;8.754;2022-10-26T01:36:46;3.40;;;3.10;;
16510;SDS011;8368;48.772;8.754;2022-10-26T01:39:29;3.97;;;3.10;;
16510;SDS011;8368;48.772;8.754;2022-10-26T01:42:10;5.30;;;3.27;;
16510;SDS011;8368;48.772;8.754;2022-10-26T01:44:43;4.77;;;3.40;;
16510;SDS011;8368;48.772;8.754;2022-10-26T01:47:13;3.60;;;3.30;;
16510;SDS011;8368;48.772;8.754;2022-10-26T01:49:41;3.53;;;3.00;;
16510;SDS011;8368;48.772;8.754;2022-10-26T01:52:13;3.73;;;3.00;;
16510;SDS011;8368;48.772;8.754;2022-10-26T01:54:39;3.90;;;3.10;;
16510;SDS011;8368;48.772;8.754;2022-10-26T01:57:06;6.37;;;3.47;;
16510;SDS011;8368;48.772;8.754;2022-10-26T02:02:23;9.97;;;3.50;;
16510;SDS011;8368;48.772;8.754;2022-10-26T02:13:02;2.87;;;2.53;;
16510;SDS011;8368;48.772;8.754;2022-10-26T02:15:36;3.20;;;2.97;;
16510;SDS011;8368;48.772;8.754;2022-10-26T02:18:17;3.63;;;3.00;;
16510;SDS011;8368;48.772;8.754;2022-10-26T02:20:48;4.70;;;2.70;;
16510;SDS011;8368;48.772;8.754;2022-10-26T02:23:18;3.13;;;2.80;;
16510;SDS011;8368;48.772;8.754;2022-10-26T02:25:48;2.63;;;2.30;;
16510;SDS011;8368;48.772;8.754;2022-10-26T02:28:18;5.10;;;2.60;;
16510;SDS011;8368;48.772;8.754;2022-10-26T02:30:48;4.13;;;2.50;;
16510;SDS011;8368;48.772;8.754;2022-10-26T02:33:17;3.60;;;2.80;;
16510;SDS011;8368;48.772;8.754;2022-10-26T02:35:45;3.17;;;2.10;;
16510;SDS011;8368;48.772;8.754;2022-10-26T02:38:14;3.93;;;2.30;;
16510;SDS011;8368;48.772;8.754;2022-10-26T02:40:43;5.83;;;2.63;;
16510;SDS011;8368;48.772;8.754;2022-10-26T02:43:12;5.00;;;2.00;;
16510;SDS011;8368;48.772;8.754;2022-10-26T02:45:46;3.17;;;2.10;;
16510;SDS011;8368;48.772;8.754;2022-10-26T02:48:17;2.43;;;2.23;;
16510;SDS011;8368;48.772;8.754;2022-10-26T02:50:47;2.57;;;2.33;;
16510;SDS011;8368;48.772;8.754;2022-10-26T02:53:23;2.43;;;2.20;;
16510;SDS011;8368;48.772;8.754;2022-10-26T02:55:56;3.40;;;2.10;;
16510;SDS011;8368;48.772;8.754;2022-10-26T02:58:29;3.53;;;2.97;;
16510;SDS011;8368;48.772;8.754;2022-10-26T03:01:01;2.47;;;2.27;;
16510;SDS011;8368;48.772;8.754;2022-10-26T03:03:26;2.00;;;1.80;;
16510;SDS011;8368;48.772;8.754;2022-10-26T03:05:52;2.20;;;2.10;;
16510;SDS011;8368;48.772;8.754;2022-10-26T03:08:18;4.33;;;1.93;;
16510;SDS011;8368;48.772;8.754;2022-10-26T03:10:44;3.70;;;2.10;;
16510;SDS011;8368;48.772;8.754;2022-10-26T03:13:10;3.83;;;2.30;;
16510;SDS011;8368;48.772;8.754;2022-10-26T03:15:37;7.23;;;2.47;;
16510;SDS011;8368;48.772;8.754;2022-10-26T03:18:04;4.90;;;2.30;;
16510;SDS011;8368;48.772;8.754;2022-10-26T03:20:30;2.90;;;2.70;;
16510;SDS011;8368;48.772;8.754;2022-10-26T03:22:55;3.73;;;2.20;;
16510;SDS011;8368;48.772;8.754;2022-10-26T03:25:21;4.27;;;2.40;;
16510;SDS011;8368;48.772;8.754;2022-10-26T03:27:55;3.73;;;2.30;;
16510;SDS011;8368;48.772;8.754;2022-10-26T03:30:24;2.80;;;2.23;;
16510;SDS011;8368;48.772;8.754;2022-10-26T03:32:49;7.40;;;2.37;;
16510;SDS011;8368;48.772;8.754;2022-10-26T03:35:15;2.73;;;2.50;;
16510;SDS011;8368;48.772;8.754;2022-10-26T03:37:40;3.60;;;2.30;;
16510;SDS011;8368;48.772;8.754;2022-10-26T03:40:06;2.83;;;2.10;;
16510;SDS011;8368;48.772;8.754;2022-10-26T03:42:34;2.73;;;2.13;;
16510;SDS011;8368;48.772;8.754;2022-10-26T03:45:00;4.90;;;2.43;;
16510;SDS011;8368;48.772;8.754;2022-10-26T03:47:26;3.83;;;2.37;;
16510;SDS011;8368;48.772;8.754;2022-10-26T03:49:51;4.57;;;2.80;;
16510;SDS011;8368;48.772;8.754;2022-10-26T03:52:17;3.10;;;2.70;;
16510;SDS011;8368;48.772;8.754;2022-10-26T03:54:42;6.47;;;2.47;;
16510;SDS011;8368;48.772;8.754;2022-10-26T03:57:08;2.60;;;2.40;;
16510;SDS011;8368;48.772;8.754;2022-10-26T03:59:33;2.70;;;2.50;;
16510;SDS011;8368;48.772;8.754;2022-10-26T04:01:59;3.67;;;2.90;;
16510;SDS011;8368;48.772;8.754;2022-10-26T04:04:25;4.03;;;3.00;;
16510;SDS011;8368;48.772;8.754;2022-10-26T04:06:50;3.07;;;2.80;;
16510;SDS011;8368;48.772;8.754;2022-10-26T04:09:16;4.00;;;2.80;;
16510;SDS011;8368;48.772;8.754;2022-10-26T04:11:41;4.10;;;2.87;;
16510;SDS011;8368;48.772;8.754;2022-10-26T04:14:07;3.00;;;2.77;;
16510;SDS011;8368;48.772;8.754;2022-10-26T04:16:32;4.53;;;3.40;;
16510;SDS011;8368;48.772;8.754;2022-10-26T04:18:58;4.93;;;2.83;;
16510;SDS011;8368;48.772;8.754;2022-10-26T04:21:23;3.73;;;2.63;;
16510;SDS011;8368;48.772;8.754;2022-10-26T04:23:49;4.27;;;2.30;;
16510;SDS011;8368;48.772;8.754;2022-10-26T04:26:14;2.93;;;2.57;;
16510;SDS011;8368;48.772;8.754;2022-10-26T04:28:40;3.83;;;2.37;;
16510;SDS011;8368;48.772;8.754;2022-10-26T04:31:05;3.73;;;2.43;;
16510;SDS011;8368;48.772;8.754;2022-10-26T04:33:31;2.87;;;2.73;;
16510;SDS011;8368;48.772;8.754;2022-10-26T04:36:00;3.37;;;2.40;;
16510;SDS011;8368;48.772;8.754;2022-10-26T04:38:25;7.10;;;2.87;;
16510;SDS011;8368;48.772;8.754;2022-10-26T04:40:51;3.17;;;2.77;;
16510;SDS011;8368;48.772;8.754;2022-10-26T04:43:17;2.93;;;2.67;;
16510;SDS011;8368;48.772;8.754;2022-10-26T04:45:42;3.13;;;2.80;;
16510;SDS011;8368;48.772;8.754;2022-10-26T04:48:11;4.10;;;3.00;;
16510;SDS011;8368;48.772;8.754;2022-10-26T04:50:38;5.53;;;3.03;;
16510;SDS011;8368;48.772;8.754;2022-10-26T04:53:04;5.77;;;2.80;;
16510;SDS011;8368;48.772;8.754;2022-10-26T04:55:31;5.87;;;2.70;;
16510;SDS011;8368;48.772;8.754;2022-10-26T04:57:57;4.20;;;2.43;;
16510;SDS011;8368;48.772;8.754;2022-10-26T05:00:22;3.03;;;2.80;;
16510;SDS011;8368;48.772;8.754;2022-10-26T05:02:48;4.27;;;2.93;;
16510;SDS011;8368;48.772;8.754;2022-10-26T05:05:13;7.00;;;3.37;;
16510;SDS011;8368;48.772;8.754;2022-10-26T05:07:39;4.73;;;2.90;;
16510;SDS011;8368;48.772;8.754;2022-10-26T05:10:05;3.20;;;2.90;;
16510;SDS011;8368;48.772;8.754;2022-10-26T05:12:31;5.27;;;2.90;;
16510;SDS011;8368;48.772;8.754;2022-10-26T05:14:56;5.30;;;2.80;;
16510;SDS011;8368;48.772;8.754;2022-10-26T05:17:23;5.17;;;3.10;;
16510;SDS011;8368;48.772;8.754;2022-10-26T05:19:50;2.90;;;2.70;;
16510;SDS011;8368;48.772;8.754;2022-10-26T05:22:20;4.50;;;2.90;;
16510;SDS011;8368;48.772;8.754;2022-10-26T05:24:46;3.73;;;2.80;;
16510;SDS011;8368;48.772;8.754;2022-10-26T05:27:12;3.10;;;2.80;;
16510;SDS011;8368;48.772;8.754;2022-10-26T05:29:37;4.53;;;2.83;;
16510;SDS011;8368;48.772;8.754;2022-10-26T05:32:03;4.03;;;2.77;;
16510;SDS011;8368;48.772;8.754;2022-10-26T05:34:29;2.73;;;2.53;;
16510;SDS011;8368;48.772;8.754;2022-10-26T05:36:54;3.77;;;2.47;;
16510;SDS011;8368;48.772;8.754;2022-10-26T05:39:20;4.90;;;3.00;;
16510;SDS011;8368;48.772;8.754;2022-10-26T05:41:46;4.77;;;3.80;;
16510;SDS011;8368;48.772;8.754;2022-10-26T05:44:11;5.20;;;4.67;;
16510;SDS011;8368;48.772;8.754;2022-10-26T05:46:37;4.70;;;4.00;;
16510;SDS011;8368;48.772;8.754;2022-10-26T05:49:02;5.27;;;3.23;;
16510;SDS011;8368;48.772;8.754;2022-10-26T05:51:28;3.70;;;3.30;;
16510;SDS011;8368;48.772;8.754;2022-10-26T05:53:53;6.90;;;2.70;;
16510;SDS011;8368;48.772;8.754;2022-10-26T05:56:19;3.70;;;3.40;;
16510;SDS011;8368;48.772;8.754;2022-10-26T05:58:57;5.87;;;2.60;;
16510;SDS011;8368;48.772;8.754;2022-10-26T06:04:09;3.87;;;3.03;;
16510;SDS011;8368;48.772;8.754;2022-10-26T06:06:43;10.50;;;2.90;;
16510;SDS011;8368;48.772;8.754;2022-10-26T06:09:11;9.03;;;2.90;;
16510;SDS011;8368;48.772;8.754;2022-10-26T06:11:37;5.07;;;3.10;;
16510;SDS011;8368;48.772;8.754;2022-10-26T06:14:03;5.10;;;2.50;;
16510;SDS011;8368;48.772;8.754;2022-10-26T06:16:51;3.40;;;3.00;;
16510;SDS011;8368;48.772;8.754;2022-10-26T06:27:38;6.93;;;3.37;;
16510;SDS011;8368;48.772;8.754;2022-10-26T06:30:14;8.37;;;3.23;;
16510;SDS011;8368;48.772;8.754;2022-10-26T06:32:43;8.63;;;2.70;;
16510;SDS011;8368;48.772;8.754;2022-10-26T06:38:06;8.20;;;3.73;;
16510;SDS011;8368;48.772;8.754;2022-10-26T06:40:41;5.70;;;3.77;;
16510;SDS011;8368;48.772;8.754;2022-10-26T06:43:19;6.83;;;4.10;;
16510;SDS011;8368;48.772;8.754;2022-10-26T06:54:48;3.93;;;2.47;;
16510;SDS011;8368;48.772;8.754;2022-10-26T06:57:19;6.50;;;3.43;;
16510;SDS011;8368;48.772;8.754;2022-10-26T06:59:50;6.07;;;3.40;;
16510;SDS011;8368;48.772;8.754;2022-10-26T07:02:21;5.50;;;3.23;;
16510;SDS011;8368;48.772;8.754;2022-10-26T07:04:47;4.87;;;2.97;;
16510;SDS011;8368;48.772;8.754;2022-10-26T07:07:34;5.07;;;3.23;;
16510;SDS011;8368;48.772;8.754;2022-10-26T07:10:01;4.60;;;3.37;;
16510;SDS011;8368;48.772;8.754;2022-10-26T07:12:27;9.87;;;3.90;;
16510;SDS011;8368;48.772;8.754;2022-10-26T07:14:52;5.33;;;3.23;;
16510;SDS011;8368;48.772;8.754;2022-10-26T07:17:18;3.90;;;3.20;;
16510;SDS011;8368;48.772;8.754;2022-10-26T07:19:43;4.40;;;2.73;;
16510;SDS011;8368;48.772;8.754;2022-10-26T07:22:09;3.17;;;2.77;;
16510;SDS011;8368;48.772;8.754;2022-10-26T07:24:34;5.23;;;2.97;;
16510;SDS011;8368;48.772;8.754;2022-10-26T07:27:00;4.97;;;2.73;;
16510;SDS011;8368;48.772;8.754;2022-10-26T07:29:26;4.23;;;2.60;;
16510;SDS011;8368;48.772;8.754;2022-10-26T07:31:52;3.73;;;3.00;;
16510;SDS011;8368;48.772;8.754;2022-10-26T07:34:17;3.27;;;2.30;;
16510;SDS011;8368;48.772;8.754;2022-10-26T07:36:43;3.23;;;2.60;;
16510;SDS011;8368;48.772;8.754;2022-10-26T07:39:09;7.10;;;3.07;;
16510;SDS011;8368;48.772;8.754;2022-10-26T07:41:34;3.23;;;2.93;;
16510;SDS011;8368;48.772;8.754;2022-10-26T07:44:00;4.90;;;2.87;;
16510;SDS011;8368;48.772;8.754;2022-10-26T07:46:26;3.83;;;2.83;;
16510;SDS011;8368;48.772;8.754;2022-10-26T07:48:52;4.40;;;2.77;;
16510;SDS011;8368;48.772;8.754;2022-10-26T07:51:17;2.63;;;2.37;;
16510;SDS011;8368;48.772;8.754;2022-10-26T07:53:43;2.67;;;2.10;;
16510;SDS011;8368;48.772;8.754;2022-10-26T07:56:09;5.73;;;2.50;;
16510;SDS011;8368;48.772;8.754;2022-10-26T07:58:35;3.40;;;2.57;;
16510;SDS011;8368;48.772;8.754;2022-10-26T08:01:07;5.50;;;2.80;;
16510;SDS011;8368;48.772;8.754;2022-10-26T08:03:35;4.60;;;2.60;;
16510;SDS011;8368;48.772;8.754;2022-10-26T08:06:01;4.17;;;2.47;;
16510;SDS011;8368;48.772;8.754;2022-10-26T08:08:28;6.27;;;2.60;;
16510;SDS011;8368;48.772;8.754;2022-10-26T08:10:54;6.63;;;2.90;;
16510;SDS011;8368;48.772;8.754;2022-10-26T08:13:19;5.50;;;2.70;;
16510;SDS011;8368;48.772;8.754;2022-10-26T08:15:45;2.70;;;2.37;;
16510;SDS011;8368;48.772;8.754;2022-10-26T08:18:11;6.43;;;2.60;;
16510;SDS011;8368;48.772;8.754;2022-10-26T08:20:37;4.93;;;2.73;;
16510;SDS011;8368;48.772;8.754;2022-10-26T08:23:03;4.27;;;2.50;;
16510;SDS011;8368;48.772;8.754;2022-10-26T08:25:30;3.03;;;2.50;;
16510;SDS011;8368;48.772;8.754;2022-10-26T08:27:59;4.87;;;2.90;;
16510;SDS011;8368;48.772;8.754;2022-10-26T08:30:26;2.70;;;2.37;;
16510;SDS011;8368;48.772;8.754;2022-10-26T08:32:58;7.40;;;2.40;;
16510;SDS011;8368;48.772;8.754;2022-10-26T08:35:29;6.00;;;2.33;;
16510;SDS011;8368;48.772;8.754;2022-10-26T08:37:55;3.53;;;2.23;;
16510;SDS011;8368;48.772;8.754;2022-10-26T08:40:24;5.83;;;2.57;;
16510;SDS011;8368;48.772;8.754;2022-10-26T08:42:59;3.37;;;2.30;;
16510;SDS011;8368;48.772;8.754;2022-10-26T08:45:35;2.83;;;2.40;;
16510;SDS011;8368;48.772;8.754;2022-10-26T08:48:04;6.33;;;2.30;;
16510;SDS011;8368;48.772;8.754;2022-10-26T08:50:38;4.60;;;2.87;;
16510;SDS011;8368;48.772;8.754;2022-10-26T08:53:38;3.63;;;2.40;;
16510;SDS011;8368;48.772;8.754;2022-10-26T08:56:13;2.70;;;2.20;;
16510;SDS011;8368;48.772;8.754;2022-10-26T08:58:45;2.97;;;2.27;;
16510;SDS011;8368;48.772;8.754;2022-10-26T09:01:18;5.33;;;2.53;;
16510;SDS011;8368;48.772;8.754;2022-10-26T09:03:44;4.23;;;2.70;;
16510;SDS011;8368;48.772;8.754;2022-10-26T09:06:28;3.27;;;2.77;;
16510;SDS011;8368;48.772;8.754;2022-10-26T09:11:50;3.47;;;2.53;;
16510;SDS011;8368;48.772;8.754;2022-10-26T09:25:21;4.07;;;2.50;;
16510;SDS011;8368;48.772;8.754;2022-10-26T09:27:49;6.13;;;2.60;;
16510;SDS011;8368;48.772;8.754;2022-10-26T09:30:24;5.70;;;2.63;;
16510;SDS011;8368;48.772;8.754;2022-10-26T09:38:09;4.27;;;3.27;;
16510;SDS011;8368;48.772;8.754;2022-10-26T09:40:41;6.93;;;3.00;;
16510;SDS011;8368;48.772;8.754;2022-10-26T09:45:52;5.33;;;3.07;;
16510;SDS011;8368;48.772;8.754;2022-10-26T09:50:55;3.65;;;2.65;;
16510;SDS011;8368;48.772;8.754;2022-10-26T09:53:22;5.27;;;3.17;;
16510;SDS011;8368;48.772;8.754;2022-10-26T09:55:48;4.10;;;2.77;;
16510;SDS011;8368;48.772;8.754;2022-10-26T09:58:28;5.27;;;2.53;;
16510;SDS011;8368;48.772;8.754;2022-10-26T10:00:56;6.13;;;2.40;;
16510;SDS011;8368;48.772;8.754;2022-10-26T10:03:26;9.37;;;2.03;;
16510;SDS011;8368;48.772;8.754;2022-10-26T10:05:53;3.47;;;1.98;;
16510;SDS011;8368;48.772;8.754;2022-10-26T10:08:39;4.10;;;2.00;;
16510;SDS011;8368;48.772;8.754;2022-10-26T10:11:09;4.65;;;1.90;;
16510;SDS011;8368;48.772;8.754;2022-10-26T10:13:40;3.15;;;1.70;;
16510;SDS011;8368;48.772;8.754;2022-10-26T10:16:11;3.63;;;2.42;;
16510;SDS011;8368;48.772;8.754;2022-10-26T10:18:51;2.60;;;1.70;;
16510;SDS011;8368;48.772;8.754;2022-10-26T10:21:19;2.55;;;1.60;;
16510;SDS011;8368;48.772;8.754;2022-10-26T10:23:46;4.57;;;2.22;;
16510;SDS011;8368;48.772;8.754;2022-10-26T10:26:13;3.67;;;1.40;;
16510;SDS011;8368;48.772;8.754;2022-10-26T10:28:39;5.90;;;1.65;;
16510;SDS011;8368;48.772;8.754;2022-10-26T10:31:22;3.72;;;1.58;;
16510;SDS011;8368;48.772;8.754;2022-10-26T10:33:54;4.80;;;1.90;;
16510;SDS011;8368;48.772;8.754;2022-10-26T10:36:20;4.38;;;2.13;;
16510;SDS011;8368;48.772;8.754;2022-10-26T10:38:48;7.57;;;2.25;;
16510;SDS011;8368;48.772;8.754;2022-10-26T10:41:20;3.60;;;1.77;;
16510;SDS011;8368;48.772;8.754;2022-10-26T10:43:52;2.38;;;1.90;;
16510;SDS011;8368;48.772;8.754;2022-10-26T10:46:29;4.82;;;1.80;;
16510;SDS011;8368;48.772;8.754;2022-10-26T10:49:02;3.25;;;1.95;;
16510;SDS011;8368;48.772;8.754;2022-10-26T10:51:34;3.78;;;2.00;;
16510;SDS011;8368;48.772;8.754;2022-10-26T10:54:02;2.33;;;1.98;;
16510;SDS011;8368;48.772;8.754;2022-10-26T10:56:39;5.35;;;1.73;;
16510;SDS011;8368;48.772;8.754;2022-10-26T11:02:10;1.70;;;1.55;;
16510;SDS011;8368;48.772;8.754;2022-10-26T11:04:44;4.70;;;2.15;;
16510;SDS011;8368;48.772;8.754;2022-10-26T11:07:15;3.22;;;1.90;;
16510;SDS011;8368;48.772;8.754;2022-10-26T11:09:43;4.05;;;1.70;;
16510;SDS011;8368;48.772;8.754;2022-10-26T11:12:16;6.45;;;1.90;;
16510;SDS011;8368;48.772;8.754;2022-10-26T11:14:58;5.28;;;1.67;;
16510;SDS011;8368;48.772;8.754;2022-10-26T11:17:30;11.07;;;2.10;;
16510;SDS011;8368;48.772;8.754;2022-10-26T11:20:08;5.45;;;1.73;;
16510;SDS011;8368;48.772;8.754;2022-10-26T11:22:41;4.35;;;1.75;;
16510;SDS011;8368;48.772;8.754;2022-10-26T11:25:24;2.65;;;1.77;;
16510;SDS011;8368;48.772;8.754;2022-10-26T11:30:26;2.97;;;1.45;;
16510;SDS011;8368;48.772;8.754;2022-10-26T11:33:14;5.28;;;1.73;;
16510;SDS011;8368;48.772;8.754;2022-10-26T11:36:01;6.05;;;1.80;;
16510;SDS011;8368;48.772;8.754;2022-10-26T11:38:37;6.05;;;1.85;;
16510;SDS011;8368;48.772;8.754;2022-10-26T11:43:55;1.80;;;1.70;;
16510;SDS011;8368;48.772;8.754;2022-10-26T11:46:38;3.50;;;1.70;;
16510;SDS011;8368;48.772;8.754;2022-10-26T11:49:16;3.40;;;1.70;;
16510;SDS011;8368;48.772;8.754;2022-10-26T11:52:02;3.17;;;1.60;;
16510;SDS011;8368;48.772;8.754;2022-10-26T11:57:09;3.80;;;1.65;;
16510;SDS011;8368;48.772;8.754;2022-10-26T11:59:37;4.80;;;1.83;;
16510;SDS011;8368;48.772;8.754;2022-10-26T12:02:30;2.45;;;1.70;;
16510;SDS011;8368;48.772;8.754;2022-10-26T12:07:42;2.45;;;1.80;;
16510;SDS011;8368;48.772;8.754;2022-10-26T12:10:18;4.25;;;1.58;;
16510;SDS011;8368;48.772;8.754;2022-10-26T12:12:53;4.45;;;1.80;;
16510;SDS011;8368;48.772;8.754;2022-10-26T12:15:33;7.35;;;2.92;;
16510;SDS011;8368;48.772;8.754;2022-10-26T12:18:09;3.95;;;1.80;;
16510;SDS011;8368;48.772;8.754;2022-10-26T12:21:08;2.90;;;1.40;;
16510;SDS011;8368;48.772;8.754;2022-10-26T12:23:36;5.80;;;1.75;;
16510;SDS011;8368;48.772;8.754;2022-10-26T12:28:47;4.57;;;1.73;;
16510;SDS011;8368;48.772;8.754;2022-10-26T12:39:28;4.10;;;1.50;;
16510;SDS011;8368;48.772;8.754;2022-10-26T12:44:37;4.20;;;1.80;;
16510;SDS011;8368;48.772;8.754;2022-10-26T12:47:05;3.85;;;1.65;;
16510;SDS011;8368;48.772;8.754;2022-10-26T12:52:38;4.35;;;1.80;;
16510;SDS011;8368;48.772;8.754;2022-10-26T13:00:30;1.70;;;1.40;;
16510;SDS011;8368;48.772;8.754;2022-10-26T13:08:41;2.20;;;1.60;;
16510;SDS011;8368;48.772;8.754;2022-10-26T13:11:15;4.90;;;2.13;;
16510;SDS011;8368;48.772;8.754;2022-10-26T13:13:51;4.30;;;1.70;;
16510;SDS011;8368;48.772;8.754;2022-10-26T13:16:26;3.80;;;1.77;;
16510;SDS011;8368;48.772;8.754;2022-10-26T13:18:53;4.03;;;1.70;;
16510;SDS011;8368;48.772;8.754;2022-10-26T13:21:20;1.83;;;1.52;;
16510;SDS011;8368;48.772;8.754;2022-10-26T13:26:20;3.05;;;1.75;;
16510;SDS011;8368;48.772;8.754;2022-10-26T13:34:09;3.47;;;2.03;;
16510;SDS011;8368;48.772;8.754;2022-10-26T13:36:50;2.67;;;1.70;;
16510;SDS011;8368;48.772;8.754;2022-10-26T13:39:19;4.95;;;2.00;;
16510;SDS011;8368;48.772;8.754;2022-10-26T13:41:49;3.65;;;1.40;;
16510;SDS011;8368;48.772;8.754;2022-10-26T13:47:01;2.50;;;1.95;;
16510;SDS011;8368;48.772;8.754;2022-10-26T13:49:37;6.38;;;1.60;;
16510;SDS011;8368;48.772;8.754;2022-10-26T13:52:05;3.20;;;1.73;;
16510;SDS011;8368;48.772;8.754;2022-10-26T13:54:46;4.85;;;1.63;;
16510;SDS011;8368;48.772;8.754;2022-10-26T14:00:29;1.58;;;1.48;;
16510;SDS011;8368;48.772;8.754;2022-10-26T14:02:54;3.38;;;1.60;;
16510;SDS011;8368;48.772;8.754;2022-10-26T14:05:20;2.47;;;1.75;;
16510;SDS011;8368;48.772;8.754;2022-10-26T14:07:54;3.65;;;1.65;;
16510;SDS011;8368;48.772;8.754;2022-10-26T14:12:55;7.22;;;1.90;;
16510;SDS011;8368;48.772;8.754;2022-10-26T14:15:22;3.53;;;1.60;;
16510;SDS011;8368;48.772;8.754;2022-10-26T14:17:51;5.68;;;1.77;;
16510;SDS011;8368;48.772;8.754;2022-10-26T14:20:20;6.82;;;1.98;;
16510;SDS011;8368;48.772;8.754;2022-10-26T14:22:47;4.00;;;1.77;;
16510;SDS011;8368;48.772;8.754;2022-10-26T14:25:17;4.93;;;1.50;;
16510;SDS011;8368;48.772;8.754;2022-10-26T14:27:49;6.15;;;1.70;;
16510;SDS011;8368;48.772;8.754;2022-10-26T14:30:22;5.25;;;1.83;;
16510;SDS011;8368;48.772;8.754;2022-10-26T14:32:50;3.10;;;1.50;;
16510;SDS011;8368;48.772;8.754;2022-10-26T14:35:16;1.63;;;1.50;;
16510;SDS011;8368;48.772;8.754;2022-10-26T14:37:56;4.30;;;1.50;;
16510;SDS011;8368;48.772;8.754;2022-10-26T14:40:26;2.33;;;1.52;;
16510;SDS011;8368;48.772;8.754;2022-10-26T14:42:58;5.15;;;2.22;;
16510;SDS011;8368;48.772;8.754;2022-10-26T14:47:51;4.00;;;1.98;;
16510;SDS011;8368;48.772;8.754;2022-10-26T14:50:21;2.72;;;1.98;;
16510;SDS011;8368;48.772;8.754;2022-10-26T14:52:49;3.00;;;1.63;;
16510;SDS011;8368;48.772;8.754;2022-10-26T14:55:20;3.67;;;1.70;;
16510;SDS011;8368;48.772;8.754;2022-10-26T14:57:46;3.35;;;1.80;;
16510;SDS011;8368;48.772;8.754;2022-10-26T15:02:43;2.92;;;2.25;;
16510;SDS011;8368;48.772;8.754;2022-10-26T15:07:44;4.75;;;1.90;;
16510;SDS011;8368;48.772;8.754;2022-10-26T15:15:57;4.25;;;1.90;;
16510;SDS011;8368;48.772;8.754;2022-10-26T15:18:40;4.10;;;1.88;;
16510;SDS011;8368;48.772;8.754;2022-10-26T15:21:18;3.47;;;1.73;;
16510;SDS011;8368;48.772;8.754;2022-10-26T15:23:54;5.28;;;2.03;;
16510;SDS011;8368;48.772;8.754;2022-10-26T15:26:20;4.50;;;2.05;;
16510;SDS011;8368;48.772;8.754;2022-10-26T15:28:46;7.07;;;2.17;;
16510;SDS011;8368;48.772;8.754;2022-10-26T15:33:41;6.05;;;1.92;;
16510;SDS011;8368;48.772;8.754;2022-10-26T15:36:28;6.85;;;3.08;;
16510;SDS011;8368;48.772;8.754;2022-10-26T15:38:54;7.03;;;5.35;;
16510;SDS011;8368;48.772;8.754;2022-10-26T15:41:35;8.13;;;3.40;;
16510;SDS011;8368;48.772;8.754;2022-10-26T15:44:03;6.60;;;4.72;;
16510;SDS011;8368;48.772;8.754;2022-10-26T15:46:31;7.90;;;6.30;;
16510;SDS011;8368;48.772;8.754;2022-10-26T15:48:59;9.60;;;6.65;;
16510;SDS011;8368;48.772;8.754;2022-10-26T15:51:27;5.38;;;4.97;;
16510;SDS011;8368;48.772;8.754;2022-10-26T15:53:55;8.13;;;5.25;;
16510;SDS011;8368;48.772;8.754;2022-10-26T15:56:21;6.65;;;4.97;;
16510;SDS011;8368;48.772;8.754;2022-10-26T15:58:48;8.38;;;4.20;;
16510;SDS011;8368;48.772;8.754;2022-10-26T16:01:18;7.20;;;4.38;;
16510;SDS011;8368;48.772;8.754;2022-10-26T16:03:51;5.30;;;3.42;;
16510;SDS011;8368;48.772;8.754;2022-10-26T16:08:50;8.80;;;4.45;;
16510;SDS011;8368;48.772;8.754;2022-10-26T16:11:17;7.10;;;4.32;;
16510;SDS011;8368;48.772;8.754;2022-10-26T16:13:43;9.23;;;4.30;;
16510;SDS011;8368;48.772;8.754;2022-10-26T16:16:12;9.10;;;4.32;;
16510;SDS011;8368;48.772;8.754;2022-10-26T16:18:39;6.25;;;4.60;;
16510;SDS011;8368;48.772;8.754;2022-10-26T16:21:05;7.70;;;4.33;;
16510;SDS011;8368;48.772;8.754;2022-10-26T16:23:35;5.63;;;4.10;;
16510;SDS011;8368;48.772;8.754;2022-10-26T16:26:00;4.53;;;3.40;;
16510;SDS011;8368;48.772;8.754;2022-10-26T16:28:28;9.32;;;3.58;;
16510;SDS011;8368;48.772;8.754;2022-10-26T16:31:00;8.37;;;4.23;;
16510;SDS011;8368;48.772;8.754;2022-10-26T16:33:27;6.73;;;4.27;;
16510;SDS011;8368;48.772;8.754;2022-10-26T16:35:56;6.20;;;4.30;;
16510;SDS011;8368;48.772;8.754;2022-10-26T16:38:22;5.00;;;3.60;;
16510;SDS011;8368;48.772;8.754;2022-10-26T16:40:48;9.70;;;4.40;;
16510;SDS011;8368;48.772;8.754;2022-10-26T16:43:14;6.13;;;4.00;;
16510;SDS011;8368;48.772;8.754;2022-10-26T16:45:40;5.47;;;3.10;;
16510;SDS011;8368;48.772;8.754;2022-10-26T16:48:06;7.10;;;3.30;;
16510;SDS011;8368;48.772;8.754;2022-10-26T16:50:38;8.30;;;3.37;;
16510;SDS011;8368;48.772;8.754;2022-10-26T16:53:04;6.90;;;4.30;;
16510;SDS011;8368;48.772;8.754;2022-10-26T16:55:29;8.07;;;3.77;;
16510;SDS011;8368;48.772;8.754;2022-10-26T16:57:55;6.87;;;3.80;;
16510;SDS011;8368;48.772;8.754;2022-10-26T17:00:21;8.57;;;4.00;;
16510;SDS011;8368;48.772;8.754;2022-10-26T17:02:46;8.37;;;3.80;;
16510;SDS011;8368;48.772;8.754;2022-10-26T17:05:12;9.37;;;3.17;;
16510;SDS011;8368;48.772;8.754;2022-10-26T17:07:37;4.07;;;2.83;;
16510;SDS011;8368;48.772;8.754;2022-10-26T17:10:03;5.30;;;2.80;;
16510;SDS011;8368;48.772;8.754;2022-10-26T17:12:30;4.87;;;2.80;;
16510;SDS011;8368;48.772;8.754;2022-10-26T17:14:55;5.47;;;3.67;;
16510;SDS011;8368;48.772;8.754;2022-10-26T17:17:23;11.97;;;7.43;;
16510;SDS011;8368;48.772;8.754;2022-10-26T17:19:48;8.13;;;5.87;;
16510;SDS011;8368;48.772;8.754;2022-10-26T17:22:14;5.60;;;4.80;;
16510;SDS011;8368;48.772;8.754;2022-10-26T17:24:40;6.27;;;5.30;;
16510;SDS011;8368;48.772;8.754;2022-10-26T17:29:37;7.00;;;6.03;;
16510;SDS011;8368;48.772;8.754;2022-10-26T17:32:02;9.67;;;6.33;;
16510;SDS011;8368;48.772;8.754;2022-10-26T17:34:28;9.73;;;6.87;;
16510;SDS011;8368;48.772;8.754;2022-10-26T17:36:53;8.77;;;6.07;;
16510;SDS011;8368;48.772;8.754;2022-10-26T17:39:19;10.07;;;5.80;;
16510;SDS011;8368;48.772;8.754;2022-10-26T17:41:45;5.93;;;5.13;;